sensor_id;sensor_type;location;lat;lon;timestamp;pressure;altitude;pressure_sealevel;temperature;humidity
60817;BME280;51921;51.518;-3.188;2022-09-16T00:00:06;101445.56;;;10.28;72.54
60817;BME280;51921;51.518;-3.188;2022-09-16T00:02:31;101449.97;;;10.13;71.39
60817;BME280;51921;51.518;-3.188;2022-09-16T00:04:56;101453.23;;;9.62;71.76
60817;BME280;51921;51.518;-3.188;2022-09-16T00:07:21;101457.06;;;10.27;71.13
60817;BME280;51921;51.518;-3.188;2022-09-16T00:09:47;101457.79;;;10.67;69.66
60817;BME280;51921;51.518;-3.188;2022-09-16T00:12:12;101463.21;;;10.35;70.30
60817;BME280;51921;51.518;-3.188;2022-09-16T00:14:38;101460.26;;;10.78;68.75
60817;BME280;51921;51.518;-3.188;2022-09-16T00:17:04;101463.23;;;10.87;66.69
60817;BME280;51921;51.518;-3.188;2022-09-16T00:19:29;101462.76;;;10.88;68.44
60817;BME280;51921;51.518;-3.188;2022-09-16T00:21:55;101460.53;;;11.24;65.29
60817;BME280;51921;51.518;-3.188;2022-09-16T00:24:20;101458.27;;;11.18;65.09
60817;BME280;51921;51.518;-3.188;2022-09-16T00:26:45;101463.68;;;8.72;71.51
60817;BME280;51921;51.518;-3.188;2022-09-16T00:29:11;101462.18;;;9.01;71.52
60817;BME280;51921;51.518;-3.188;2022-09-16T00:31:37;101463.61;;;9.06;71.02
60817;BME280;51921;51.518;-3.188;2022-09-16T00:34:02;101463.05;;;8.91;71.50
60817;BME280;51921;51.518;-3.188;2022-09-16T00:36:28;101461.37;;;10.14;67.69
60817;BME280;51921;51.518;-3.188;2022-09-16T00:38:54;101462.70;;;10.35;66.98
60817;BME280;51921;51.518;-3.188;2022-09-16T00:41:21;101455.82;;;11.15;63.66
60817;BME280;51921;51.518;-3.188;2022-09-16T00:43:49;101457.87;;;10.21;64.93
60817;BME280;51921;51.518;-3.188;2022-09-16T00:46:09;101463.03;;;10.52;64.63
60817;BME280;51921;51.518;-3.188;2022-09-16T00:48:35;101454.84;;;11.97;59.60
60817;BME280;51921;51.518;-3.188;2022-09-16T00:51:03;101458.26;;;11.40;60.83
60817;BME280;51921;51.518;-3.188;2022-09-16T00:53:27;101452.38;;;12.17;59.04
60817;BME280;51921;51.518;-3.188;2022-09-16T00:55:53;101452.63;;;12.65;58.89
60817;BME280;51921;51.518;-3.188;2022-09-16T00:58:22;101456.43;;;11.73;60.05
60817;BME280;51921;51.518;-3.188;2022-09-16T01:00:42;101457.57;;;12.30;59.66
60817;BME280;51921;51.518;-3.188;2022-09-16T01:03:08;101462.58;;;11.27;61.78
60817;BME280;51921;51.518;-3.188;2022-09-16T01:05:33;101463.75;;;11.73;61.78
60817;BME280;51921;51.518;-3.188;2022-09-16T01:07:59;101466.74;;;11.52;61.40
60817;BME280;51921;51.518;-3.188;2022-09-16T01:10:25;101461.55;;;12.12;59.87
60817;BME280;51921;51.518;-3.188;2022-09-16T01:12:52;101461.07;;;12.04;59.98
60817;BME280;51921;51.518;-3.188;2022-09-16T01:15:16;101465.71;;;12.05;59.65
60817;BME280;51921;51.518;-3.188;2022-09-16T01:17:54;101467.91;;;12.12;58.98
60817;BME280;51921;51.518;-3.188;2022-09-16T01:20:19;101468.32;;;11.42;60.86
60817;BME280;51921;51.518;-3.188;2022-09-16T01:22:45;101469.96;;;11.96;59.93
60817;BME280;51921;51.518;-3.188;2022-09-16T01:25:06;101470.91;;;11.81;61.42
60817;BME280;51921;51.518;-3.188;2022-09-16T01:27:36;101470.24;;;10.99;62.77
60817;BME280;51921;51.518;-3.188;2022-09-16T01:30:06;101470.69;;;11.64;61.59
60817;BME280;51921;51.518;-3.188;2022-09-16T01:32:17;101467.38;;;11.73;60.32
60817;BME280;51921;51.518;-3.188;2022-09-16T01:34:47;101471.85;;;11.19;61.37
60817;BME280;51921;51.518;-3.188;2022-09-16T01:37:07;101474.51;;;11.87;61.81
60817;BME280;51921;51.518;-3.188;2022-09-16T01:39:36;101474.85;;;11.38;61.92
60817;BME280;51921;51.518;-3.188;2022-09-16T01:42:06;101472.27;;;11.97;60.22
60817;BME280;51921;51.518;-3.188;2022-09-16T01:44:23;101464.70;;;12.18;58.66
60817;BME280;51921;51.518;-3.188;2022-09-16T01:46:48;101463.89;;;11.54;60.25
60817;BME280;51921;51.518;-3.188;2022-09-16T01:49:17;101466.97;;;11.65;59.52
60817;BME280;51921;51.518;-3.188;2022-09-16T01:51:42;101470.77;;;11.67;59.91
60817;BME280;51921;51.518;-3.188;2022-09-16T01:54:07;101472.91;;;11.39;60.23
60817;BME280;51921;51.518;-3.188;2022-09-16T01:56:32;101469.73;;;12.82;57.84
60817;BME280;51921;51.518;-3.188;2022-09-16T01:58:58;101465.37;;;12.47;58.50
60817;BME280;51921;51.518;-3.188;2022-09-16T02:01:22;101464.06;;;12.24;58.51
60817;BME280;51921;51.518;-3.188;2022-09-16T02:03:49;101464.29;;;11.93;58.99
60817;BME280;51921;51.518;-3.188;2022-09-16T02:06:14;101462.58;;;10.54;61.78
60817;BME280;51921;51.518;-3.188;2022-09-16T02:08:40;101460.24;;;11.96;58.59
60817;BME280;51921;51.518;-3.188;2022-09-16T02:11:03;101463.65;;;11.98;58.21
60817;BME280;51921;51.518;-3.188;2022-09-16T02:13:30;101460.04;;;12.45;57.39
60817;BME280;51921;51.518;-3.188;2022-09-16T02:15:56;101456.07;;;10.50;60.86
60817;BME280;51921;51.518;-3.188;2022-09-16T02:18:21;101458.61;;;9.44;66.85
60817;BME280;51921;51.518;-3.188;2022-09-16T02:20:45;101451.66;;;10.06;63.84
60817;BME280;51921;51.518;-3.188;2022-09-16T02:23:14;101452.74;;;10.90;61.72
60817;BME280;51921;51.518;-3.188;2022-09-16T02:25:36;101456.49;;;11.01;61.46
60817;BME280;51921;51.518;-3.188;2022-09-16T02:28:01;101455.47;;;10.58;63.46
60817;BME280;51921;51.518;-3.188;2022-09-16T02:30:25;101454.02;;;10.60;62.72
60817;BME280;51921;51.518;-3.188;2022-09-16T02:32:55;101450.15;;;11.70;59.52
60817;BME280;51921;51.518;-3.188;2022-09-16T02:35:19;101451.59;;;10.27;63.58
60817;BME280;51921;51.518;-3.188;2022-09-16T02:37:46;101455.93;;;10.26;64.09
60817;BME280;51921;51.518;-3.188;2022-09-16T02:40:12;101457.27;;;12.80;57.65
60817;BME280;51921;51.518;-3.188;2022-09-16T02:42:32;101455.00;;;12.88;56.27
60817;BME280;51921;51.518;-3.188;2022-09-16T02:44:58;101457.84;;;13.15;55.60
60817;BME280;51921;51.518;-3.188;2022-09-16T02:47:28;101458.13;;;13.49;53.89
60817;BME280;51921;51.518;-3.188;2022-09-16T02:49:54;101457.00;;;11.35;60.51
60817;BME280;51921;51.518;-3.188;2022-09-16T02:52:16;101456.37;;;11.99;57.28
60817;BME280;51921;51.518;-3.188;2022-09-16T02:54:46;101457.86;;;10.51;62.00
60817;BME280;51921;51.518;-3.188;2022-09-16T02:57:05;101456.31;;;9.94;64.09
60817;BME280;51921;51.518;-3.188;2022-09-16T02:59:30;101454.79;;;11.85;60.11
60817;BME280;51921;51.518;-3.188;2022-09-16T03:01:58;101453.68;;;11.93;59.27
60817;BME280;51921;51.518;-3.188;2022-09-16T03:04:21;101456.18;;;13.79;54.31
60817;BME280;51921;51.518;-3.188;2022-09-16T03:06:47;101451.66;;;13.82;53.83
60817;BME280;51921;51.518;-3.188;2022-09-16T03:09:13;101444.34;;;13.10;56.47
60817;BME280;51921;51.518;-3.188;2022-09-16T03:11:50;101452.15;;;13.55;54.68
60817;BME280;51921;51.518;-3.188;2022-09-16T03:14:14;101453.25;;;15.54;50.61
60817;BME280;51921;51.518;-3.188;2022-09-16T03:16:35;101456.43;;;13.82;53.12
60817;BME280;51921;51.518;-3.188;2022-09-16T03:18:59;101454.69;;;13.48;54.02
60817;BME280;51921;51.518;-3.188;2022-09-16T03:21:26;101456.93;;;13.84;53.48
60817;BME280;51921;51.518;-3.188;2022-09-16T03:23:51;101454.49;;;13.40;54.80
60817;BME280;51921;51.518;-3.188;2022-09-16T03:26:17;101455.92;;;13.26;53.59
60817;BME280;51921;51.518;-3.188;2022-09-16T03:28:41;101453.52;;;14.61;51.76
60817;BME280;51921;51.518;-3.188;2022-09-16T03:31:04;101454.18;;;14.14;53.09
60817;BME280;51921;51.518;-3.188;2022-09-16T03:33:31;101450.67;;;13.10;54.65
60817;BME280;51921;51.518;-3.188;2022-09-16T03:35:56;101447.39;;;12.65;56.96
60817;BME280;51921;51.518;-3.188;2022-09-16T03:38:18;101451.09;;;13.62;55.16
60817;BME280;51921;51.518;-3.188;2022-09-16T03:40:43;101450.88;;;13.14;54.80
60817;BME280;51921;51.518;-3.188;2022-09-16T03:43:10;101452.76;;;13.03;54.98
60817;BME280;51921;51.518;-3.188;2022-09-16T03:45:33;101455.91;;;13.06;55.18
60817;BME280;51921;51.518;-3.188;2022-09-16T03:47:59;101458.24;;;13.29;54.48
60817;BME280;51921;51.518;-3.188;2022-09-16T03:50:24;101457.36;;;13.11;54.77
60817;BME280;51921;51.518;-3.188;2022-09-16T03:52:50;101449.56;;;12.56;57.22
60817;BME280;51921;51.518;-3.188;2022-09-16T03:55:15;101449.62;;;12.50;57.08
60817;BME280;51921;51.518;-3.188;2022-09-16T03:57:40;101449.87;;;12.23;58.36
60817;BME280;51921;51.518;-3.188;2022-09-16T04:00:07;101447.31;;;12.14;58.68
60817;BME280;51921;51.518;-3.188;2022-09-16T04:02:31;101441.97;;;12.59;57.80
60817;BME280;51921;51.518;-3.188;2022-09-16T04:04:56;101444.13;;;12.90;57.18
60817;BME280;51921;51.518;-3.188;2022-09-16T04:07:22;101440.73;;;12.59;57.61
60817;BME280;51921;51.518;-3.188;2022-09-16T04:09:47;101442.46;;;12.88;56.70
60817;BME280;51921;51.518;-3.188;2022-09-16T04:12:13;101443.51;;;12.92;56.69
60817;BME280;51921;51.518;-3.188;2022-09-16T04:14:38;101442.65;;;12.36;58.32
60817;BME280;51921;51.518;-3.188;2022-09-16T04:17:04;101449.55;;;12.71;56.02
60817;BME280;51921;51.518;-3.188;2022-09-16T04:19:29;101446.03;;;12.43;56.27
60817;BME280;51921;51.518;-3.188;2022-09-16T04:21:55;101450.19;;;12.82;56.15
60817;BME280;51921;51.518;-3.188;2022-09-16T04:24:20;101446.10;;;12.88;55.24
60817;BME280;51921;51.518;-3.188;2022-09-16T04:26:45;101445.81;;;10.59;63.10
60817;BME280;51921;51.518;-3.188;2022-09-16T04:29:11;101446.93;;;12.29;59.29
60817;BME280;51921;51.518;-3.188;2022-09-16T04:31:37;101450.23;;;12.51;57.43
60817;BME280;51921;51.518;-3.188;2022-09-16T04:34:02;101452.88;;;12.17;58.65
60817;BME280;51921;51.518;-3.188;2022-09-16T04:36:27;101451.56;;;10.72;63.66
60817;BME280;51921;51.518;-3.188;2022-09-16T04:38:52;101445.05;;;11.18;65.22
60817;BME280;51921;51.518;-3.188;2022-09-16T04:41:20;101452.55;;;10.19;68.66
60817;BME280;51921;51.518;-3.188;2022-09-16T04:43:43;101452.62;;;10.53;70.62
60817;BME280;51921;51.518;-3.188;2022-09-16T04:46:09;101448.56;;;9.07;74.39
60817;BME280;51921;51.518;-3.188;2022-09-16T04:48:34;101453.73;;;8.72;77.60
60817;BME280;51921;51.518;-3.188;2022-09-16T04:51:03;101457.38;;;9.53;75.76
60817;BME280;51921;51.518;-3.188;2022-09-16T04:53:25;101457.54;;;9.45;75.96
60817;BME280;51921;51.518;-3.188;2022-09-16T04:55:51;101453.87;;;9.38;76.11
60817;BME280;51921;51.518;-3.188;2022-09-16T04:58:16;101455.53;;;8.82;77.69
60817;BME280;51921;51.518;-3.188;2022-09-16T05:00:42;101457.34;;;9.06;78.33
60817;BME280;51921;51.518;-3.188;2022-09-16T05:03:07;101459.34;;;9.04;78.73
60817;BME280;51921;51.518;-3.188;2022-09-16T05:05:33;101461.05;;;9.51;76.82
60817;BME280;51921;51.518;-3.188;2022-09-16T05:07:59;101465.04;;;8.47;80.65
60817;BME280;51921;51.518;-3.188;2022-09-16T05:10:24;101469.09;;;10.09;75.42
60817;BME280;51921;51.518;-3.188;2022-09-16T05:12:51;101467.47;;;9.29;76.02
60817;BME280;51921;51.518;-3.188;2022-09-16T05:15:15;101471.91;;;9.23;77.36
60817;BME280;51921;51.518;-3.188;2022-09-16T05:17:41;101471.91;;;9.25;77.82
60817;BME280;51921;51.518;-3.188;2022-09-16T05:20:07;101475.05;;;8.58;78.80
60817;BME280;51921;51.518;-3.188;2022-09-16T05:22:32;101476.73;;;9.49;76.55
60817;BME280;51921;51.518;-3.188;2022-09-16T05:24:57;101479.78;;;9.98;75.50
60817;BME280;51921;51.518;-3.188;2022-09-16T05:27:23;101484.51;;;9.71;76.38
60817;BME280;51921;51.518;-3.188;2022-09-16T05:29:48;101484.63;;;9.90;75.12
60817;BME280;51921;51.518;-3.188;2022-09-16T05:32:14;101478.28;;;9.16;76.34
60817;BME280;51921;51.518;-3.188;2022-09-16T05:34:39;101477.79;;;9.01;79.10
60817;BME280;51921;51.518;-3.188;2022-09-16T05:37:05;101477.52;;;8.50;82.06
60817;BME280;51921;51.518;-3.188;2022-09-16T05:39:30;101475.72;;;8.82;81.00
60817;BME280;51921;51.518;-3.188;2022-09-16T05:41:57;101474.02;;;8.91;80.90
60817;BME280;51921;51.518;-3.188;2022-09-16T05:44:22;101475.13;;;8.70;81.05
60817;BME280;51921;51.518;-3.188;2022-09-16T05:46:47;101480.24;;;8.26;82.45
60817;BME280;51921;51.518;-3.188;2022-09-16T05:49:12;101485.04;;;8.90;81.00
60817;BME280;51921;51.518;-3.188;2022-09-16T05:51:39;101485.29;;;8.65;81.30
60817;BME280;51921;51.518;-3.188;2022-09-16T05:54:04;101482.28;;;9.27;79.30
60817;BME280;51921;51.518;-3.188;2022-09-16T05:56:29;101482.40;;;9.34;76.91
60817;BME280;51921;51.518;-3.188;2022-09-16T05:58:56;101483.15;;;9.05;78.20
60817;BME280;51921;51.518;-3.188;2022-09-16T06:01:22;101492.14;;;10.00;75.67
60817;BME280;51921;51.518;-3.188;2022-09-16T06:03:47;101497.17;;;9.71;75.36
60817;BME280;51921;51.518;-3.188;2022-09-16T06:06:15;101493.81;;;9.47;76.69
60817;BME280;51921;51.518;-3.188;2022-09-16T06:08:37;101495.81;;;9.29;77.35
60817;BME280;51921;51.518;-3.188;2022-09-16T06:11:03;101497.00;;;9.12;77.42
60817;BME280;51921;51.518;-3.188;2022-09-16T06:13:28;101500.68;;;9.54;74.77
60817;BME280;51921;51.518;-3.188;2022-09-16T06:15:53;101501.42;;;9.96;74.05
60817;BME280;51921;51.518;-3.188;2022-09-16T06:18:19;101505.50;;;9.50;75.73
60817;BME280;51921;51.518;-3.188;2022-09-16T06:20:44;101506.74;;;8.58;80.46
60817;BME280;51921;51.518;-3.188;2022-09-16T06:23:10;101510.23;;;8.88;78.86
60817;BME280;51921;51.518;-3.188;2022-09-16T06:25:35;101510.77;;;9.62;76.95
60817;BME280;51921;51.518;-3.188;2022-09-16T06:28:01;101511.13;;;9.29;76.74
60817;BME280;51921;51.518;-3.188;2022-09-16T06:30:27;101511.34;;;9.53;75.50
60817;BME280;51921;51.518;-3.188;2022-09-16T06:32:53;101516.15;;;10.06;74.24
60817;BME280;51921;51.518;-3.188;2022-09-16T06:35:17;101519.61;;;10.18;74.18
60817;BME280;51921;51.518;-3.188;2022-09-16T06:37:43;101526.69;;;9.87;75.63
60817;BME280;51921;51.518;-3.188;2022-09-16T06:40:09;101526.84;;;10.51;72.86
60817;BME280;51921;51.518;-3.188;2022-09-16T06:42:34;101531.39;;;9.21;75.55
60817;BME280;51921;51.518;-3.188;2022-09-16T06:44:59;101534.91;;;9.13;77.92
60817;BME280;51921;51.518;-3.188;2022-09-16T06:47:25;101538.57;;;8.79;79.21
60817;BME280;51921;51.518;-3.188;2022-09-16T06:49:51;101542.40;;;9.09;78.70
60817;BME280;51921;51.518;-3.188;2022-09-16T06:52:16;101544.43;;;10.60;73.25
60817;BME280;51921;51.518;-3.188;2022-09-16T06:54:42;101547.88;;;10.37;74.70
60817;BME280;51921;51.518;-3.188;2022-09-16T06:57:07;101551.57;;;10.51;72.12
60817;BME280;51921;51.518;-3.188;2022-09-16T06:59:33;101553.94;;;10.61;71.15
60817;BME280;51921;51.518;-3.188;2022-09-16T07:01:58;101552.58;;;10.18;72.03
60817;BME280;51921;51.518;-3.188;2022-09-16T07:04:24;101552.90;;;9.45;75.51
60817;BME280;51921;51.518;-3.188;2022-09-16T07:06:49;101558.76;;;10.30;72.71
60817;BME280;51921;51.518;-3.188;2022-09-16T07:09:15;101552.42;;;9.50;74.58
60817;BME280;51921;51.518;-3.188;2022-09-16T07:11:40;101553.62;;;9.82;76.05
60817;BME280;51921;51.518;-3.188;2022-09-16T07:14:07;101560.64;;;10.18;74.41
60817;BME280;51921;51.518;-3.188;2022-09-16T07:16:31;101565.75;;;8.62;79.17
60817;BME280;51921;51.518;-3.188;2022-09-16T07:18:57;101564.66;;;10.17;74.55
60817;BME280;51921;51.518;-3.188;2022-09-16T07:21:24;101568.52;;;9.14;77.09
60817;BME280;51921;51.518;-3.188;2022-09-16T07:23:48;101564.73;;;9.63;74.07
60817;BME280;51921;51.518;-3.188;2022-09-16T07:26:15;101566.86;;;9.95;74.76
60817;BME280;51921;51.518;-3.188;2022-09-16T07:28:40;101566.56;;;10.73;71.46
60817;BME280;51921;51.518;-3.188;2022-09-16T07:31:06;101566.34;;;10.60;71.44
60817;BME280;51921;51.518;-3.188;2022-09-16T07:33:30;101566.26;;;10.68;72.61
60817;BME280;51921;51.518;-3.188;2022-09-16T07:35:58;101569.64;;;11.63;68.57
60817;BME280;51921;51.518;-3.188;2022-09-16T07:38:21;101566.60;;;9.88;72.61
60817;BME280;51921;51.518;-3.188;2022-09-16T07:40:46;101565.16;;;10.02;72.90
60817;BME280;51921;51.518;-3.188;2022-09-16T07:43:12;101567.23;;;11.23;67.36
60817;BME280;51921;51.518;-3.188;2022-09-16T07:45:37;101569.88;;;10.40;71.41
60817;BME280;51921;51.518;-3.188;2022-09-16T07:48:03;101576.05;;;9.45;72.39
60817;BME280;51921;51.518;-3.188;2022-09-16T07:50:28;101569.60;;;10.61;68.70
60817;BME280;51921;51.518;-3.188;2022-09-16T07:52:54;101576.08;;;10.51;68.90
60817;BME280;51921;51.518;-3.188;2022-09-16T07:55:19;101579.76;;;10.50;68.08
60817;BME280;51921;51.518;-3.188;2022-09-16T07:57:45;101582.13;;;10.05;68.79
60817;BME280;51921;51.518;-3.188;2022-09-16T08:00:12;101582.13;;;12.32;61.59
60817;BME280;51921;51.518;-3.188;2022-09-16T08:02:36;101591.69;;;11.37;62.32
60817;BME280;51921;51.518;-3.188;2022-09-16T08:05:01;101594.87;;;11.04;65.65
60817;BME280;51921;51.518;-3.188;2022-09-16T08:07:27;101594.29;;;10.73;63.46
60817;BME280;51921;51.518;-3.188;2022-09-16T08:09:52;101597.60;;;10.93;62.76
60817;BME280;51921;51.518;-3.188;2022-09-16T08:12:17;101597.44;;;10.97;62.41
60817;BME280;51921;51.518;-3.188;2022-09-16T08:14:43;101599.46;;;11.12;61.65
60817;BME280;51921;51.518;-3.188;2022-09-16T08:17:08;101602.52;;;10.23;63.79
60817;BME280;51921;51.518;-3.188;2022-09-16T08:19:34;101599.13;;;9.40;65.27
60817;BME280;51921;51.518;-3.188;2022-09-16T08:21:59;101601.82;;;11.19;62.39
60817;BME280;51921;51.518;-3.188;2022-09-16T08:24:25;101603.28;;;11.45;61.01
60817;BME280;51921;51.518;-3.188;2022-09-16T08:26:50;101603.07;;;11.00;62.26
60817;BME280;51921;51.518;-3.188;2022-09-16T08:29:16;101604.49;;;10.70;62.43
60817;BME280;51921;51.518;-3.188;2022-09-16T08:31:41;101611.17;;;10.35;66.56
60817;BME280;51921;51.518;-3.188;2022-09-16T08:34:07;101617.88;;;11.22;61.59
60817;BME280;51921;51.518;-3.188;2022-09-16T08:36:32;101610.02;;;13.02;57.12
60817;BME280;51921;51.518;-3.188;2022-09-16T08:38:58;101613.88;;;12.96;56.58
60817;BME280;51921;51.518;-3.188;2022-09-16T08:41:34;101618.67;;;11.43;60.59
60817;BME280;51921;51.518;-3.188;2022-09-16T08:43:55;101624.04;;;11.29;60.02
60817;BME280;51921;51.518;-3.188;2022-09-16T08:46:19;101621.91;;;10.77;61.83
60817;BME280;51921;51.518;-3.188;2022-09-16T08:48:47;101622.47;;;10.47;63.52
60817;BME280;51921;51.518;-3.188;2022-09-16T08:51:07;101632.86;;;10.20;61.91
60817;BME280;51921;51.518;-3.188;2022-09-16T08:53:36;101623.44;;;9.59;64.82
60817;BME280;51921;51.518;-3.188;2022-09-16T08:55:57;101623.56;;;10.55;64.38
60817;BME280;51921;51.518;-3.188;2022-09-16T08:58:24;101620.97;;;10.40;63.16
60817;BME280;51921;51.518;-3.188;2022-09-16T09:00:53;101624.83;;;11.66;60.36
60817;BME280;51921;51.518;-3.188;2022-09-16T09:03:29;101622.82;;;12.48;54.37
60817;BME280;51921;51.518;-3.188;2022-09-16T09:05:44;101632.15;;;12.01;54.05
60817;BME280;51921;51.518;-3.188;2022-09-16T09:08:18;101639.17;;;11.63;54.16
60817;BME280;51921;51.518;-3.188;2022-09-16T09:10:35;101640.94;;;11.60;55.33
60817;BME280;51921;51.518;-3.188;2022-09-16T09:12:58;101627.55;;;12.07;52.54
60817;BME280;51921;51.518;-3.188;2022-09-16T09:15:28;101641.51;;;10.38;56.91
60817;BME280;51921;51.518;-3.188;2022-09-16T09:17:56;101646.38;;;11.20;57.60
60817;BME280;51921;51.518;-3.188;2022-09-16T09:20:19;101640.39;;;10.67;56.72
60817;BME280;51921;51.518;-3.188;2022-09-16T09:22:49;101646.49;;;10.58;58.33
60817;BME280;51921;51.518;-3.188;2022-09-16T09:25:20;101644.92;;;10.81;57.46
60817;BME280;51921;51.518;-3.188;2022-09-16T09:27:33;101647.36;;;11.16;53.73
60817;BME280;51921;51.518;-3.188;2022-09-16T09:30:04;101650.07;;;11.25;54.35
60817;BME280;51921;51.518;-3.188;2022-09-16T09:32:23;101650.02;;;12.59;51.09
60817;BME280;51921;51.518;-3.188;2022-09-16T09:34:54;101653.75;;;10.82;54.77
60817;BME280;51921;51.518;-3.188;2022-09-16T09:37:19;101656.19;;;10.58;55.27
60817;BME280;51921;51.518;-3.188;2022-09-16T09:39:41;101654.12;;;11.16;53.92
60817;BME280;51921;51.518;-3.188;2022-09-16T09:42:04;101657.86;;;11.82;52.77
60817;BME280;51921;51.518;-3.188;2022-09-16T09:44:35;101655.45;;;12.20;52.00
60817;BME280;51921;51.518;-3.188;2022-09-16T09:46:54;101656.56;;;12.18;51.16
60817;BME280;51921;51.518;-3.188;2022-09-16T09:49:24;101658.74;;;11.03;53.52
60817;BME280;51921;51.518;-3.188;2022-09-16T09:51:44;101665.14;;;12.70;52.48
60817;BME280;51921;51.518;-3.188;2022-09-16T09:54:17;101660.55;;;11.05;55.56
60817;BME280;51921;51.518;-3.188;2022-09-16T09:56:35;101666.96;;;10.54;56.81
60817;BME280;51921;51.518;-3.188;2022-09-16T09:59:11;101671.56;;;11.48;54.67
60817;BME280;51921;51.518;-3.188;2022-09-16T10:01:23;101677.31;;;10.82;55.42
60817;BME280;51921;51.518;-3.188;2022-09-16T10:03:50;101670.60;;;10.70;54.09
60817;BME280;51921;51.518;-3.188;2022-09-16T10:06:14;101675.72;;;10.71;56.79
60817;BME280;51921;51.518;-3.188;2022-09-16T10:08:46;101674.98;;;10.71;55.79
60817;BME280;51921;51.518;-3.188;2022-09-16T10:11:14;101665.46;;;10.49;56.03
60817;BME280;51921;51.518;-3.188;2022-09-16T10:13:30;101669.84;;;11.77;52.80
60817;BME280;51921;51.518;-3.188;2022-09-16T10:16:07;101667.00;;;11.41;52.25
60817;BME280;51921;51.518;-3.188;2022-09-16T10:18:26;101657.52;;;10.42;54.85
60817;BME280;51921;51.518;-3.188;2022-09-16T10:20:55;101665.32;;;11.07;55.47
60817;BME280;51921;51.518;-3.188;2022-09-16T10:23:15;101664.31;;;11.50;53.21
60817;BME280;51921;51.518;-3.188;2022-09-16T10:25:37;101670.67;;;11.70;53.43
60817;BME280;51921;51.518;-3.188;2022-09-16T10:28:05;101665.39;;;11.54;51.98
60817;BME280;51921;51.518;-3.188;2022-09-16T10:30:30;101654.73;;;12.66;52.06
60817;BME280;51921;51.518;-3.188;2022-09-16T10:32:56;101664.51;;;11.84;51.47
60817;BME280;51921;51.518;-3.188;2022-09-16T10:35:21;101656.99;;;12.92;49.36
60817;BME280;51921;51.518;-3.188;2022-09-16T10:37:49;101659.64;;;13.06;47.44
60817;BME280;51921;51.518;-3.188;2022-09-16T10:40:15;101653.40;;;14.87;44.81
60817;BME280;51921;51.518;-3.188;2022-09-16T10:42:35;101661.76;;;11.66;48.77
60817;BME280;51921;51.518;-3.188;2022-09-16T10:45:03;101668.25;;;11.54;51.79
60817;BME280;51921;51.518;-3.188;2022-09-16T10:47:29;101671.08;;;13.25;48.43
60817;BME280;51921;51.518;-3.188;2022-09-16T10:49:54;101661.28;;;13.56;47.97
60817;BME280;51921;51.518;-3.188;2022-09-16T10:52:20;101664.09;;;12.71;50.16
60817;BME280;51921;51.518;-3.188;2022-09-16T10:54:43;101670.75;;;13.54;47.68
60817;BME280;51921;51.518;-3.188;2022-09-16T10:57:20;101670.48;;;12.85;50.28
60817;BME280;51921;51.518;-3.188;2022-09-16T10:59:33;101674.41;;;12.15;49.36
60817;BME280;51921;51.518;-3.188;2022-09-16T11:02:06;101674.10;;;13.45;47.58
60817;BME280;51921;51.518;-3.188;2022-09-16T11:06:57;101668.77;;;12.58;48.48
60817;BME280;51921;51.518;-3.188;2022-09-16T11:09:22;101675.48;;;12.08;48.40
60817;BME280;51921;51.518;-3.188;2022-09-16T11:11:52;101663.99;;;13.58;48.06
60817;BME280;51921;51.518;-3.188;2022-09-16T11:14:12;101658.66;;;13.25;46.94
60817;BME280;51921;51.518;-3.188;2022-09-16T11:16:46;101655.92;;;12.48;48.10
60817;BME280;51921;51.518;-3.188;2022-09-16T11:19:00;101662.08;;;13.37;44.21
60817;BME280;51921;51.518;-3.188;2022-09-16T11:21:45;101660.05;;;13.03;46.56
60817;BME280;51921;51.518;-3.188;2022-09-16T11:24:00;101666.94;;;13.27;45.53
60817;BME280;51921;51.518;-3.188;2022-09-16T11:26:18;101668.88;;;12.29;49.13
60817;BME280;51921;51.518;-3.188;2022-09-16T11:28:49;101661.12;;;12.61;47.17
60817;BME280;51921;51.518;-3.188;2022-09-16T11:31:08;101663.43;;;14.14;46.39
60817;BME280;51921;51.518;-3.188;2022-09-16T11:33:35;101668.21;;;14.03;43.65
60817;BME280;51921;51.518;-3.188;2022-09-16T11:36:14;101655.69;;;14.40;46.53
60817;BME280;51921;51.518;-3.188;2022-09-16T11:38:24;101660.79;;;16.57;39.72
60817;BME280;51921;51.518;-3.188;2022-09-16T11:40:47;101662.80;;;17.03;38.88
60817;BME280;51921;51.518;-3.188;2022-09-16T11:43:25;101674.82;;;14.18;43.40
60817;BME280;51921;51.518;-3.188;2022-09-16T11:45:44;101672.98;;;12.85;47.95
60817;BME280;51921;51.518;-3.188;2022-09-16T11:50:35;101672.65;;;13.39;45.21
60817;BME280;51921;51.518;-3.188;2022-09-16T11:53:05;101685.17;;;13.41;46.23
60817;BME280;51921;51.518;-3.188;2022-09-16T11:55:27;101676.12;;;14.13;44.86
60817;BME280;51921;51.518;-3.188;2022-09-16T11:57:45;101673.14;;;14.30;43.31
60817;BME280;51921;51.518;-3.188;2022-09-16T12:00:11;101665.67;;;15.27;43.23
60817;BME280;51921;51.518;-3.188;2022-09-16T12:02:38;101673.16;;;13.45;45.52
60817;BME280;51921;51.518;-3.188;2022-09-16T12:05:02;101668.19;;;12.48;46.62
60817;BME280;51921;51.518;-3.188;2022-09-16T12:07:28;101665.85;;;13.63;45.09
60817;BME280;51921;51.518;-3.188;2022-09-16T12:09:53;101655.53;;;14.75;43.33
60817;BME280;51921;51.518;-3.188;2022-09-16T12:12:17;101656.82;;;15.80;39.46
60817;BME280;51921;51.518;-3.188;2022-09-16T12:14:44;101664.72;;;15.18;40.77
60817;BME280;51921;51.518;-3.188;2022-09-16T12:17:11;101664.14;;;15.48;39.85
60817;BME280;51921;51.518;-3.188;2022-09-16T12:19:35;101664.98;;;15.39;37.27
60817;BME280;51921;51.518;-3.188;2022-09-16T12:22:00;101659.42;;;16.62;36.71
60817;BME280;51921;51.518;-3.188;2022-09-16T12:24:28;101663.47;;;16.92;35.36
60817;BME280;51921;51.518;-3.188;2022-09-16T12:26:52;101661.92;;;13.82;41.01
60817;BME280;51921;51.518;-3.188;2022-09-16T12:29:17;101662.79;;;16.16;37.29
60817;BME280;51921;51.518;-3.188;2022-09-16T12:31:41;101667.28;;;13.46;41.23
60817;BME280;51921;51.518;-3.188;2022-09-16T12:34:08;101670.15;;;12.76;43.61
60817;BME280;51921;51.518;-3.188;2022-09-16T12:36:31;101669.00;;;12.90;43.75